createdAt,value
2023-03-26T00:01:30.182Z,50.09
2023-03-26T00:04:34.593Z,50.03
2023-03-26T00:07:37.658Z,49.99
2023-03-26T00:10:41.897Z,50.21
2023-03-26T00:13:46.835Z,50.38
2023-03-26T00:16:50.030Z,50.35
2023-03-26T00:19:53.681Z,50.69
2023-03-26T00:22:56.743Z,50.76
2023-03-26T00:26:00.891Z,50.90
2023-03-26T00:29:04.909Z,51.01
2023-03-26T00:32:08.014Z,51.08
2023-03-26T00:35:11.210Z,51.23
2023-03-26T00:38:14.904Z,51.16
2023-03-26T00:41:26.362Z,51.31
2023-03-26T00:44:29.768Z,51.51
2023-03-26T00:47:33.504Z,51.58
2023-03-26T00:50:36.549Z,51.58
2023-03-26T00:53:41.280Z,51.70
2023-03-26T00:56:44.794Z,51.90
2023-03-26T00:59:51.520Z,51.90
2023-03-26T01:02:55.906Z,52.14
2023-03-26T01:06:09.689Z,52.16
2023-03-26T01:09:17.292Z,52.17
2023-03-26T01:12:24.553Z,52.33
2023-03-26T01:15:30.152Z,52.51
2023-03-26T01:18:40.994Z,52.59
2023-03-26T01:21:44.146Z,52.56
2023-03-26T01:24:53.504Z,52.70
2023-03-26T01:27:57.224Z,52.76
2023-03-26T01:31:29.750Z,52.86
2023-03-26T01:34:41.966Z,53.08
2023-03-26T01:38:11.087Z,53.10
2023-03-26T01:41:22.688Z,53.15
2023-03-26T01:44:34.569Z,53.35
2023-03-26T01:47:41.192Z,53.41
2023-03-26T01:50:44.814Z,53.47
2023-03-26T01:53:48.517Z,53.59
2023-03-26T01:57:18.728Z,53.62
2023-03-26T02:00:26.039Z,53.72
2023-03-26T02:03:38.643Z,53.80
2023-03-26T02:06:51.781Z,53.88
2023-03-26T02:10:02.185Z,53.87
2023-03-26T02:13:06.172Z,54.00
2023-03-26T02:16:16.570Z,54.02
2023-03-26T02:19:21.738Z,54.06
2023-03-26T02:22:29.859Z,54.22
2023-03-26T02:25:35.301Z,54.46
2023-03-26T02:28:38.742Z,54.55
2023-03-26T02:31:43.575Z,54.63
2023-03-26T02:34:47.401Z,54.72
2023-03-26T02:37:51.054Z,54.66
2023-03-26T02:40:55.869Z,54.75
2023-03-26T02:44:01.145Z,54.75
2023-03-26T02:47:22.976Z,54.84
2023-03-26T02:50:32.559Z,55.02
2023-03-26T02:53:58.874Z,55.01
2023-03-26T02:57:07.872Z,55.07
2023-03-26T03:00:33.717Z,55.17
2023-03-26T03:03:55.225Z,55.14
2023-03-26T03:07:14.433Z,55.34
2023-03-26T03:10:21.928Z,55.36
2023-03-26T03:13:45.991Z,55.50
2023-03-26T03:16:53.994Z,55.47
2023-03-26T03:19:58.201Z,55.52
2023-03-26T03:23:01.791Z,55.63
2023-03-26T03:26:06.809Z,55.56
2023-03-26T03:29:10.727Z,55.65
2023-03-26T03:32:14.264Z,55.77
2023-03-26T03:35:21.208Z,55.76
2023-03-26T03:38:26.777Z,55.78
2023-03-26T03:41:30.350Z,55.74
2023-03-26T03:44:33.793Z,55.86
2023-03-26T03:47:37.131Z,55.86
2023-03-26T03:50:40.689Z,55.88
2023-03-26T03:53:57.561Z,55.97
2023-03-26T03:57:24.042Z,56.09
2023-03-26T04:00:41.841Z,56.19
2023-03-26T04:04:03.977Z,56.22
2023-03-26T04:07:20.400Z,56.23
2023-03-26T04:10:38.122Z,56.34
2023-03-26T04:13:41.269Z,56.34
2023-03-26T04:17:14.075Z,56.54
2023-03-26T04:20:19.309Z,56.47
2023-03-26T04:23:23.404Z,56.64
2023-03-26T04:26:32.192Z,56.70
2023-03-26T04:29:43.983Z,56.71
2023-03-26T04:32:51.837Z,56.65
2023-03-26T04:35:56.923Z,56.82
2023-03-26T04:39:04.850Z,56.83
2023-03-26T04:42:28.761Z,56.83
2023-03-26T04:45:42.482Z,56.99
2023-03-26T04:48:45.897Z,56.95
2023-03-26T04:51:49.338Z,56.98
2023-03-26T04:55:24.918Z,57.11
2023-03-26T04:58:35.641Z,57.11
2023-03-26T05:01:40.257Z,57.20
2023-03-26T05:04:45.918Z,57.19
2023-03-26T05:07:49.546Z,57.20
2023-03-26T05:10:53.631Z,57.27
2023-03-26T05:14:04.448Z,57.39
2023-03-26T05:17:10.961Z,57.52
2023-03-26T05:20:21.011Z,57.48
2023-03-26T05:23:24.788Z,57.57
2023-03-26T05:26:34.741Z,57.64
2023-03-26T05:29:38.260Z,57.68
2023-03-26T05:32:41.615Z,57.58
2023-03-26T05:35:45.763Z,57.53
2023-03-26T05:38:49.972Z,57.59
2023-03-26T05:42:26.726Z,57.60
2023-03-26T05:45:48.278Z,57.64
2023-03-26T05:49:01.637Z,57.68
2023-03-26T05:52:07.704Z,57.55
2023-03-26T05:55:30.894Z,57.54
2023-03-26T05:58:52.597Z,57.52
2023-03-26T06:02:14.269Z,57.46
2023-03-26T06:05:37.463Z,57.47
2023-03-26T06:09:01.956Z,57.37
2023-03-26T06:12:07.941Z,57.27
2023-03-26T06:15:11.581Z,57.07
2023-03-26T06:18:23.537Z,57.05
2023-03-26T06:21:45.018Z,56.98
2023-03-26T06:24:56.291Z,56.77
2023-03-26T06:28:16.028Z,56.54
2023-03-26T06:31:36.083Z,56.65
2023-03-26T06:34:54.928Z,56.42
2023-03-26T06:37:58.911Z,56.40
2023-03-26T06:41:06.355Z,56.60
2023-03-26T06:44:28.977Z,56.50
2023-03-26T06:47:50.669Z,56.36
2023-03-26T06:51:12.180Z,56.41
2023-03-26T06:54:33.438Z,56.24
2023-03-26T06:57:51.452Z,56.25
2023-03-26T07:01:14.854Z,56.13
2023-03-26T07:04:36.272Z,56.11
2023-03-26T07:08:14.761Z,56.26
2023-03-26T07:11:53.049Z,56.28
2023-03-26T07:15:14.486Z,56.26
2023-03-26T07:18:40.128Z,56.15
2023-03-26T07:21:46.916Z,56.23
2023-03-26T07:25:19.473Z,56.31
2023-03-26T07:29:04.984Z,56.08
2023-03-26T07:32:43.433Z,56.12
2023-03-26T07:36:17.630Z,56.13
2023-03-26T07:39:42.713Z,56.02
2023-03-26T07:43:18.941Z,56.10
2023-03-26T07:46:41.546Z,56.10
2023-03-26T07:49:57.879Z,56.20
2023-03-26T07:53:22.574Z,55.89
2023-03-26T07:56:56.535Z,55.68
2023-03-26T08:00:30.670Z,55.52
2023-03-26T08:03:55.260Z,55.15
2023-03-26T08:07:30.548Z,55.07
2023-03-26T08:11:04.010Z,55.00
2023-03-26T08:14:28.682Z,54.86
2023-03-26T08:17:45.657Z,54.78
2023-03-26T08:21:14.241Z,54.85
2023-03-26T08:24:43.652Z,54.74
2023-03-26T08:28:09.986Z,54.26
2023-03-26T08:31:15.368Z,54.48
2023-03-26T08:34:18.490Z,54.41
2023-03-26T08:37:21.621Z,54.24
2023-03-26T08:41:00.885Z,54.00
2023-03-26T08:44:36.850Z,53.91
2023-03-26T08:48:10.654Z,53.79
2023-03-26T08:51:40.219Z,53.59
2023-03-26T08:54:56.851Z,53.43
2023-03-26T08:58:22.570Z,53.35
2023-03-26T09:01:49.510Z,53.35
2023-03-26T09:05:10.828Z,53.12
2023-03-26T09:08:53.730Z,53.11
2023-03-26T09:12:22.806Z,53.20
2023-03-26T09:15:51.205Z,53.04
2023-03-26T09:19:18.488Z,52.82
2023-03-26T09:22:39.602Z,52.67
2023-03-26T09:26:12.023Z,52.35
2023-03-26T09:29:32.797Z,52.35
2023-03-26T09:33:01.870Z,52.26
2023-03-26T09:36:17.572Z,52.18
2023-03-26T09:39:20.898Z,52.10
2023-03-26T09:42:26.614Z,52.13
2023-03-26T09:45:46.995Z,52.04
2023-03-26T09:49:07.385Z,52.08
2023-03-26T09:52:28.423Z,52.23
2023-03-26T09:55:44.879Z,52.28
2023-03-26T09:59:23.143Z,52.25
2023-03-26T10:03:19.920Z,52.28
2023-03-26T10:06:39.475Z,52.52
2023-03-26T10:10:23.847Z,52.50
2023-03-26T10:13:37.980Z,52.46
2023-03-26T10:16:46.956Z,52.87
2023-03-26T10:20:52.742Z,53.55
2023-03-26T10:29:59.765Z,55.20
2023-03-26T10:33:03.275Z,55.33
2023-03-26T10:36:27.715Z,55.12
2023-03-26T10:49:22.366Z,54.24
2023-03-26T10:57:44.994Z,54.23
2023-03-26T11:12:37.677Z,54.18
2023-03-26T11:16:01.334Z,53.88
2023-03-26T11:19:21.680Z,53.35
2023-03-26T11:22:34.725Z,53.27
2023-03-26T11:25:58.539Z,52.97
2023-03-26T11:29:32.904Z,52.14
2023-03-26T11:32:45.322Z,51.63
2023-03-26T11:36:02.425Z,51.06
2023-03-26T11:39:13.307Z,50.93
2023-03-26T11:42:18.089Z,50.58
2023-03-26T11:45:27.265Z,50.61
2023-03-26T11:48:43.822Z,50.40
2023-03-26T11:51:50.330Z,50.51
2023-03-26T11:54:59.112Z,50.37
2023-03-26T11:58:04.954Z,50.26
2023-03-26T12:01:29.719Z,50.25
2023-03-26T12:04:39.900Z,49.97
2023-03-26T12:07:59.504Z,49.89
2023-03-26T12:11:10.583Z,49.78
2023-03-26T12:14:22.732Z,50.00
2023-03-26T12:17:34.536Z,49.83
2023-03-26T12:20:38.310Z,49.58
2023-03-26T12:24:18.359Z,49.59
2023-03-26T12:27:28.140Z,49.21
2023-03-26T12:30:36.769Z,48.94
2023-03-26T12:33:39.882Z,48.25
2023-03-26T12:36:49.040Z,48.08
2023-03-26T12:40:24.870Z,47.49
2023-03-26T12:44:55.725Z,47.24
2023-03-26T12:47:59.881Z,46.96
2023-03-26T12:51:02.342Z,46.36
2023-03-26T12:54:22.959Z,45.77
2023-03-26T12:57:32.975Z,45.87
2023-03-26T13:01:06.055Z,45.93
2023-03-26T13:04:40.582Z,45.91
2023-03-26T13:08:16.235Z,46.07
2023-03-26T13:11:40.727Z,46.18
2023-03-26T13:14:55.750Z,45.61
2023-03-26T13:18:15.521Z,45.66
2023-03-26T13:21:36.860Z,45.47
2023-03-26T13:24:44.718Z,45.38
2023-03-26T13:28:01.280Z,45.57
2023-03-26T13:31:49.991Z,45.77
2023-03-26T13:35:08.083Z,45.74
2023-03-26T13:38:21.643Z,46.07
2023-03-26T13:41:35.634Z,46.18
2023-03-26T13:45:06.225Z,46.27
2023-03-26T13:48:19.710Z,46.56
2023-03-26T13:51:27.542Z,46.67
2023-03-26T13:54:29.338Z,46.79
2023-03-26T13:57:38.817Z,46.86
2023-03-26T14:00:58.949Z,47.06
2023-03-26T14:04:33.225Z,47.20
2023-03-26T14:07:44.198Z,47.31
2023-03-26T14:11:03.635Z,47.54
2023-03-26T14:14:11.803Z,47.63
2023-03-26T14:17:20.192Z,47.88
2023-03-26T14:20:44.036Z,48.08
2023-03-26T14:24:22.346Z,48.20
2023-03-26T14:27:56.200Z,48.55
2023-03-26T14:31:19.936Z,48.52
2023-03-26T14:34:22.874Z,48.88
2023-03-26T14:37:42.279Z,48.95
2023-03-26T14:41:22.982Z,49.23
2023-03-26T14:44:47.909Z,49.26
2023-03-26T15:11:05.513Z,49.26
2023-03-26T15:14:27.400Z,49.21
2023-03-26T15:18:18.640Z,49.18
2023-03-26T15:24:30.912Z,49.37
2023-03-26T15:28:30.126Z,49.42
2023-03-26T15:31:37.086Z,49.52
2023-03-26T15:35:30.162Z,49.61
2023-03-26T15:38:54.914Z,49.75
2023-03-26T15:42:04.106Z,49.66
2023-03-26T15:45:16.182Z,49.54
2023-03-26T15:49:02.583Z,49.60
2023-03-26T15:56:54.743Z,49.70
2023-03-26T16:00:26.034Z,49.70
2023-03-26T16:03:41.425Z,49.75
2023-03-26T16:07:05.604Z,49.77
2023-03-26T16:10:45.288Z,49.78
2023-03-26T16:14:10.354Z,49.96
2023-03-26T16:17:23.653Z,50.05
2023-03-26T16:20:51.038Z,50.13
2023-03-26T16:23:57.867Z,50.25
2023-03-26T16:27:10.931Z,50.10
2023-03-26T16:30:29.089Z,50.43
2023-03-26T16:33:50.682Z,50.83
2023-03-26T16:36:55.407Z,50.90
2023-03-26T16:44:37.598Z,51.40
2023-03-26T16:47:51.460Z,51.44
2023-03-26T16:51:03.864Z,51.43
2023-03-26T16:54:07.220Z,51.46
2023-03-26T16:57:25.092Z,51.62
2023-03-26T17:00:34.600Z,51.55
2023-03-26T17:03:50.009Z,51.66
2023-03-26T17:07:24.145Z,51.91
2023-03-26T17:10:33.108Z,51.76
2023-03-26T17:14:06.437Z,51.92
2023-03-26T17:17:23.634Z,52.13
2023-03-26T17:20:50.604Z,52.15
2023-03-26T17:23:59.730Z,52.38
2023-03-26T17:27:25.010Z,52.43
2023-03-26T17:30:50.549Z,52.59
2023-03-26T17:33:54.484Z,52.87
2023-03-26T17:37:04.265Z,52.99
2023-03-26T17:40:27.345Z,53.13
2023-03-26T17:43:36.508Z,53.35
2023-03-26T17:46:45.048Z,53.50
2023-03-26T17:49:54.025Z,53.38
2023-03-26T17:53:23.592Z,53.50
2023-03-26T17:56:32.209Z,53.51
2023-03-26T17:59:39.226Z,53.69
2023-03-26T18:02:49.769Z,53.67
2023-03-26T18:10:19.094Z,53.66
2023-03-26T18:14:07.032Z,53.90
2023-03-26T18:17:10.616Z,53.91
2023-03-26T18:20:24.493Z,53.75
2023-03-26T18:23:37.556Z,53.53
2023-03-26T18:27:06.423Z,53.36
2023-03-26T18:30:30.869Z,53.24
2023-03-26T18:33:47.821Z,52.90
2023-03-26T18:37:15.857Z,52.75
2023-03-26T18:40:24.503Z,52.63
2023-03-26T18:43:34.848Z,52.46
2023-03-26T18:51:06.884Z,52.28
2023-03-26T18:58:52.592Z,51.96
2023-03-26T19:03:03.454Z,52.05
2023-03-26T19:06:57.630Z,51.99
2023-03-26T19:26:15.573Z,51.69
2023-03-26T19:53:37.439Z,51.78
2023-03-26T19:56:40.690Z,51.72
2023-03-26T19:59:46.261Z,51.93
2023-03-26T20:02:54.184Z,51.79
2023-03-26T20:05:57.481Z,52.00
2023-03-26T20:09:01.364Z,52.08
2023-03-26T20:12:04.577Z,52.13
2023-03-26T20:15:19.486Z,52.14
2023-03-26T20:18:23.844Z,52.13
2023-03-26T20:21:39.224Z,52.34
2023-03-26T20:24:52.918Z,52.33
2023-03-26T20:27:56.637Z,52.36
2023-03-26T20:31:00.255Z,52.54
2023-03-26T20:34:03.536Z,52.59
2023-03-26T20:37:07.061Z,52.80
2023-03-26T20:40:12.336Z,53.18
2023-03-26T20:43:18.462Z,53.32
2023-03-26T20:46:31.255Z,53.45
2023-03-26T20:49:35.044Z,53.58
2023-03-26T20:52:38.083Z,53.74
2023-03-26T20:55:48.308Z,53.93
2023-03-26T20:59:03.643Z,54.04
2023-03-26T21:02:16.616Z,53.96
2023-03-26T21:05:25.022Z,54.19
2023-03-26T21:08:34.174Z,54.38
2023-03-26T21:12:01.892Z,54.52
2023-03-26T21:15:10.583Z,54.68
2023-03-26T21:18:20.250Z,54.84
2023-03-26T21:21:42.785Z,54.97
2023-03-26T21:25:05.462Z,55.09
2023-03-26T21:28:42.409Z,55.21
2023-03-26T21:31:46.802Z,55.43
2023-03-26T21:34:58.566Z,55.47
2023-03-26T21:38:06.411Z,55.56
2023-03-26T21:41:24.368Z,55.68
2023-03-26T21:44:27.793Z,55.59
2023-03-26T21:47:31.316Z,55.83
2023-03-26T21:50:34.869Z,56.02
2023-03-26T21:53:38.382Z,56.16
2023-03-26T21:56:49.926Z,56.01
2023-03-26T22:00:18.242Z,56.20
2023-03-26T22:03:38.171Z,56.40
2023-03-26T22:06:48.025Z,56.63
2023-03-26T22:09:52.105Z,56.68
2023-03-26T22:12:55.549Z,56.72
2023-03-26T22:15:58.891Z,56.75
2023-03-26T22:19:02.067Z,57.06
2023-03-26T22:22:05.434Z,57.14
2023-03-26T22:25:10.425Z,57.27
2023-03-26T22:28:13.906Z,57.24
2023-03-26T22:31:17.668Z,57.39
2023-03-26T22:34:21.369Z,57.47
2023-03-26T22:37:25.944Z,57.63
2023-03-26T22:40:29.214Z,57.74
2023-03-26T22:43:32.541Z,57.78
2023-03-26T22:46:35.819Z,58.00
2023-03-26T22:49:40.030Z,58.10
2023-03-26T22:52:43.308Z,58.04
2023-03-26T22:55:46.560Z,58.13
2023-03-26T22:58:49.808Z,58.16
2023-03-26T23:01:53.317Z,58.26
2023-03-26T23:04:56.476Z,58.37
2023-03-26T23:08:00.409Z,58.34
2023-03-26T23:11:17.598Z,58.34
2023-03-26T23:14:21.830Z,58.50
2023-03-26T23:17:25.081Z,58.55
2023-03-26T23:20:29.228Z,58.75
2023-03-26T23:23:34.530Z,58.68
2023-03-26T23:26:49.571Z,58.63
2023-03-26T23:29:53.532Z,58.76
2023-03-26T23:32:57.462Z,58.82
2023-03-26T23:36:04.248Z,58.79
2023-03-26T23:39:10.989Z,58.92
2023-03-26T23:42:14.078Z,59.00
2023-03-26T23:45:17.444Z,59.12
2023-03-26T23:48:23.282Z,59.28
2023-03-26T23:51:26.511Z,59.34
2023-03-26T23:54:30.120Z,59.36
2023-03-26T23:57:33.180Z,59.36
